sensor_id;sensor_type;location;lat;lon;timestamp;temperature;humidity
4727;DHT22;2377;51.734;8.950;2022-10-30T00:01:08;15.20;99.90
4727;DHT22;2377;51.734;8.950;2022-10-30T00:03:36;15.10;99.90
4727;DHT22;2377;51.734;8.950;2022-10-30T00:06:04;15.10;99.90
4727;DHT22;2377;51.734;8.950;2022-10-30T00:08:32;15.10;99.90
4727;DHT22;2377;51.734;8.950;2022-10-30T00:11:06;15.00;99.90
4727;DHT22;2377;51.734;8.950;2022-10-30T00:13:35;15.00;99.90
4727;DHT22;2377;51.734;8.950;2022-10-30T00:16:04;14.90;99.90
4727;DHT22;2377;51.734;8.950;2022-10-30T00:18:34;14.80;99.90
4727;DHT22;2377;51.734;8.950;2022-10-30T00:21:07;14.80;99.90
4727;DHT22;2377;51.734;8.950;2022-10-30T00:23:34;14.80;99.90
4727;DHT22;2377;51.734;8.950;2022-10-30T00:26:03;14.80;99.90
4727;DHT22;2377;51.734;8.950;2022-10-30T00:28:33;14.80;99.90
4727;DHT22;2377;51.734;8.950;2022-10-30T00:31:01;14.80;99.90
4727;DHT22;2377;51.734;8.950;2022-10-30T00:33:30;14.80;99.90
4727;DHT22;2377;51.734;8.950;2022-10-30T00:35:57;14.70;99.90
4727;DHT22;2377;51.734;8.950;2022-10-30T00:38:24;14.70;99.90
4727;DHT22;2377;51.734;8.950;2022-10-30T00:40:52;14.70;99.90
4727;DHT22;2377;51.734;8.950;2022-10-30T00:43:32;14.60;99.90
4727;DHT22;2377;51.734;8.950;2022-10-30T00:46:05;14.60;99.90
4727;DHT22;2377;51.734;8.950;2022-10-30T00:48:41;14.60;99.90
4727;DHT22;2377;51.734;8.950;2022-10-30T00:51:12;14.60;99.90
4727;DHT22;2377;51.734;8.950;2022-10-30T00:53:41;14.60;99.90
4727;DHT22;2377;51.734;8.950;2022-10-30T00:56:10;14.60;99.90
4727;DHT22;2377;51.734;8.950;2022-10-30T00:58:47;14.60;99.90
4727;DHT22;2377;51.734;8.950;2022-10-30T01:01:20;14.60;99.90
4727;DHT22;2377;51.734;8.950;2022-10-30T01:03:54;14.60;99.90
4727;DHT22;2377;51.734;8.950;2022-10-30T01:06:23;14.60;99.90
4727;DHT22;2377;51.734;8.950;2022-10-30T01:08:53;14.60;99.90
4727;DHT22;2377;51.734;8.950;2022-10-30T01:11:21;14.60;99.90
4727;DHT22;2377;51.734;8.950;2022-10-30T01:13:51;14.60;99.90
4727;DHT22;2377;51.734;8.950;2022-10-30T01:16:40;14.60;99.90
4727;DHT22;2377;51.734;8.950;2022-10-30T01:19:21;14.60;99.90
4727;DHT22;2377;51.734;8.950;2022-10-30T01:22:13;14.60;99.90
4727;DHT22;2377;51.734;8.950;2022-10-30T01:24:57;14.50;99.90
4727;DHT22;2377;51.734;8.950;2022-10-30T01:27:40;14.50;99.90
4727;DHT22;2377;51.734;8.950;2022-10-30T01:30:23;14.50;99.90
4727;DHT22;2377;51.734;8.950;2022-10-30T01:33:11;14.50;99.90
4727;DHT22;2377;51.734;8.950;2022-10-30T01:35:52;14.50;99.90
4727;DHT22;2377;51.734;8.950;2022-10-30T01:38:31;14.50;99.90
4727;DHT22;2377;51.734;8.950;2022-10-30T01:41:01;14.40;99.90
4727;DHT22;2377;51.734;8.950;2022-10-30T01:43:29;14.40;99.90
4727;DHT22;2377;51.734;8.950;2022-10-30T01:46:14;14.40;99.90
4727;DHT22;2377;51.734;8.950;2022-10-30T01:49:13;14.40;99.90
4727;DHT22;2377;51.734;8.950;2022-10-30T01:52:00;14.40;99.90
4727;DHT22;2377;51.734;8.950;2022-10-30T01:54:40;14.40;99.90
4727;DHT22;2377;51.734;8.950;2022-10-30T01:57:21;14.30;99.90
4727;DHT22;2377;51.734;8.950;2022-10-30T02:00:02;14.30;99.90
4727;DHT22;2377;51.734;8.950;2022-10-30T02:02:32;14.30;99.90
4727;DHT22;2377;51.734;8.950;2022-10-30T02:05:00;14.30;99.90
4727;DHT22;2377;51.734;8.950;2022-10-30T02:07:27;14.30;99.90
4727;DHT22;2377;51.734;8.950;2022-10-30T02:09:55;14.30;99.90
4727;DHT22;2377;51.734;8.950;2022-10-30T02:12:23;14.30;99.90
4727;DHT22;2377;51.734;8.950;2022-10-30T02:14:55;14.30;99.90
4727;DHT22;2377;51.734;8.950;2022-10-30T02:17:24;14.30;99.90
4727;DHT22;2377;51.734;8.950;2022-10-30T02:19:54;14.20;99.90
4727;DHT22;2377;51.734;8.950;2022-10-30T02:22:23;14.20;99.90
4727;DHT22;2377;51.734;8.950;2022-10-30T02:24:50;14.10;99.90
4727;DHT22;2377;51.734;8.950;2022-10-30T02:27:17;14.10;99.90
4727;DHT22;2377;51.734;8.950;2022-10-30T02:29:44;14.10;99.90
4727;DHT22;2377;51.734;8.950;2022-10-30T02:32:11;14.10;99.90
4727;DHT22;2377;51.734;8.950;2022-10-30T02:34:39;14.10;99.90
4727;DHT22;2377;51.734;8.950;2022-10-30T02:37:07;14.10;99.90
4727;DHT22;2377;51.734;8.950;2022-10-30T02:39:36;14.10;99.90
4727;DHT22;2377;51.734;8.950;2022-10-30T02:42:03;14.00;99.90
4727;DHT22;2377;51.734;8.950;2022-10-30T02:44:30;14.00;99.90
4727;DHT22;2377;51.734;8.950;2022-10-30T02:46:57;14.00;99.90
4727;DHT22;2377;51.734;8.950;2022-10-30T02:49:25;14.00;99.90
4727;DHT22;2377;51.734;8.950;2022-10-30T02:51:53;14.10;99.90
4727;DHT22;2377;51.734;8.950;2022-10-30T02:54:20;14.10;99.90
4727;DHT22;2377;51.734;8.950;2022-10-30T02:56:48;14.00;99.90
4727;DHT22;2377;51.734;8.950;2022-10-30T02:59:16;14.00;99.90
4727;DHT22;2377;51.734;8.950;2022-10-30T03:01:43;14.00;99.90
4727;DHT22;2377;51.734;8.950;2022-10-30T03:04:10;14.00;99.90
4727;DHT22;2377;51.734;8.950;2022-10-30T03:06:37;14.00;99.90
4727;DHT22;2377;51.734;8.950;2022-10-30T03:09:04;13.90;99.90
4727;DHT22;2377;51.734;8.950;2022-10-30T03:11:33;13.80;99.90
4727;DHT22;2377;51.734;8.950;2022-10-30T03:14:02;13.80;99.90
4727;DHT22;2377;51.734;8.950;2022-10-30T03:16:29;13.80;99.90
4727;DHT22;2377;51.734;8.950;2022-10-30T03:18:58;13.80;99.90
4727;DHT22;2377;51.734;8.950;2022-10-30T03:21:26;13.80;99.90
4727;DHT22;2377;51.734;8.950;2022-10-30T03:23:55;13.80;99.90
4727;DHT22;2377;51.734;8.950;2022-10-30T03:26:22;13.70;99.90
4727;DHT22;2377;51.734;8.950;2022-10-30T03:28:49;13.80;99.90
4727;DHT22;2377;51.734;8.950;2022-10-30T03:31:18;13.70;99.90
4727;DHT22;2377;51.734;8.950;2022-10-30T03:33:46;13.70;99.90
4727;DHT22;2377;51.734;8.950;2022-10-30T03:36:13;13.70;99.90
4727;DHT22;2377;51.734;8.950;2022-10-30T03:38:41;13.60;99.90
4727;DHT22;2377;51.734;8.950;2022-10-30T03:41:08;13.60;99.90
4727;DHT22;2377;51.734;8.950;2022-10-30T03:43:35;13.50;99.90
4727;DHT22;2377;51.734;8.950;2022-10-30T03:46:03;13.50;99.90
4727;DHT22;2377;51.734;8.950;2022-10-30T03:48:32;13.50;99.90
4727;DHT22;2377;51.734;8.950;2022-10-30T03:50:59;13.50;99.90
4727;DHT22;2377;51.734;8.950;2022-10-30T03:53:27;13.50;99.90
4727;DHT22;2377;51.734;8.950;2022-10-30T03:55:57;13.40;99.90
4727;DHT22;2377;51.734;8.950;2022-10-30T03:58:26;13.30;99.90
4727;DHT22;2377;51.734;8.950;2022-10-30T04:00:53;13.30;99.90
4727;DHT22;2377;51.734;8.950;2022-10-30T04:03:20;13.10;99.90
4727;DHT22;2377;51.734;8.950;2022-10-30T04:05:52;13.10;99.90
4727;DHT22;2377;51.734;8.950;2022-10-30T04:08:19;13.10;99.90
4727;DHT22;2377;51.734;8.950;2022-10-30T04:10:46;13.00;99.90
4727;DHT22;2377;51.734;8.950;2022-10-30T04:13:15;13.00;99.90
4727;DHT22;2377;51.734;8.950;2022-10-30T04:15:43;12.90;99.90
4727;DHT22;2377;51.734;8.950;2022-10-30T04:18:12;12.80;99.90
4727;DHT22;2377;51.734;8.950;2022-10-30T04:20:40;12.90;99.90
4727;DHT22;2377;51.734;8.950;2022-10-30T04:23:12;12.80;99.90
4727;DHT22;2377;51.734;8.950;2022-10-30T04:25:41;12.80;99.90
4727;DHT22;2377;51.734;8.950;2022-10-30T04:28:08;12.80;99.90
4727;DHT22;2377;51.734;8.950;2022-10-30T04:30:36;12.70;99.90
4727;DHT22;2377;51.734;8.950;2022-10-30T04:33:06;12.70;99.90
4727;DHT22;2377;51.734;8.950;2022-10-30T04:35:36;12.70;99.90
4727;DHT22;2377;51.734;8.950;2022-10-30T04:38:05;12.70;99.90
4727;DHT22;2377;51.734;8.950;2022-10-30T04:40:37;12.60;99.90
4727;DHT22;2377;51.734;8.950;2022-10-30T04:43:05;12.60;99.90
4727;DHT22;2377;51.734;8.950;2022-10-30T04:45:34;12.50;99.90
4727;DHT22;2377;51.734;8.950;2022-10-30T04:48:04;12.50;99.90
4727;DHT22;2377;51.734;8.950;2022-10-30T04:50:34;12.50;99.90
4727;DHT22;2377;51.734;8.950;2022-10-30T04:53:01;12.40;99.90
4727;DHT22;2377;51.734;8.950;2022-10-30T04:55:30;12.30;99.90
4727;DHT22;2377;51.734;8.950;2022-10-30T04:58:00;12.40;99.90
4727;DHT22;2377;51.734;8.950;2022-10-30T05:00:28;12.40;99.90
4727;DHT22;2377;51.734;8.950;2022-10-30T05:02:58;12.40;99.90
4727;DHT22;2377;51.734;8.950;2022-10-30T05:05:26;12.30;99.90
4727;DHT22;2377;51.734;8.950;2022-10-30T05:07:53;12.40;99.90
4727;DHT22;2377;51.734;8.950;2022-10-30T05:10:21;12.30;99.90
4727;DHT22;2377;51.734;8.950;2022-10-30T05:12:50;12.30;99.90
4727;DHT22;2377;51.734;8.950;2022-10-30T05:15:20;12.30;99.90
4727;DHT22;2377;51.734;8.950;2022-10-30T05:17:50;12.30;99.90
4727;DHT22;2377;51.734;8.950;2022-10-30T05:20:18;12.20;99.90
4727;DHT22;2377;51.734;8.950;2022-10-30T05:22:52;12.10;99.90
4727;DHT22;2377;51.734;8.950;2022-10-30T05:25:20;12.10;99.90
4727;DHT22;2377;51.734;8.950;2022-10-30T05:27:47;12.10;99.90
4727;DHT22;2377;51.734;8.950;2022-10-30T05:30:14;12.20;99.90
4727;DHT22;2377;51.734;8.950;2022-10-30T05:32:42;12.10;99.90
4727;DHT22;2377;51.734;8.950;2022-10-30T05:35:09;12.00;99.90
4727;DHT22;2377;51.734;8.950;2022-10-30T05:37:36;12.00;99.90
4727;DHT22;2377;51.734;8.950;2022-10-30T05:40:05;11.90;99.90
4727;DHT22;2377;51.734;8.950;2022-10-30T05:42:32;11.90;99.90
4727;DHT22;2377;51.734;8.950;2022-10-30T05:45:00;11.80;99.90
4727;DHT22;2377;51.734;8.950;2022-10-30T05:47:27;11.80;99.90
4727;DHT22;2377;51.734;8.950;2022-10-30T05:49:55;11.90;99.90
4727;DHT22;2377;51.734;8.950;2022-10-30T05:52:23;11.90;99.90
4727;DHT22;2377;51.734;8.950;2022-10-30T05:54:50;11.80;99.90
4727;DHT22;2377;51.734;8.950;2022-10-30T05:57:17;11.80;99.90
4727;DHT22;2377;51.734;8.950;2022-10-30T05:59:44;11.80;99.90
4727;DHT22;2377;51.734;8.950;2022-10-30T06:02:12;11.90;99.90
4727;DHT22;2377;51.734;8.950;2022-10-30T06:04:40;11.80;99.90
4727;DHT22;2377;51.734;8.950;2022-10-30T06:07:09;11.80;99.90
4727;DHT22;2377;51.734;8.950;2022-10-30T06:09:36;11.70;99.90
4727;DHT22;2377;51.734;8.950;2022-10-30T06:12:04;11.70;99.90
4727;DHT22;2377;51.734;8.950;2022-10-30T06:14:31;11.60;99.90
4727;DHT22;2377;51.734;8.950;2022-10-30T06:16:59;11.60;99.90
4727;DHT22;2377;51.734;8.950;2022-10-30T06:19:26;11.60;99.90
4727;DHT22;2377;51.734;8.950;2022-10-30T06:21:53;11.60;99.90
4727;DHT22;2377;51.734;8.950;2022-10-30T06:24:22;11.60;99.90
4727;DHT22;2377;51.734;8.950;2022-10-30T06:26:49;11.60;99.90
4727;DHT22;2377;51.734;8.950;2022-10-30T06:29:16;11.50;99.90
4727;DHT22;2377;51.734;8.950;2022-10-30T06:31:44;11.50;99.90
4727;DHT22;2377;51.734;8.950;2022-10-30T06:34:11;11.50;99.90
4727;DHT22;2377;51.734;8.950;2022-10-30T06:36:38;11.50;99.90
4727;DHT22;2377;51.734;8.950;2022-10-30T06:39:05;11.50;99.90
4727;DHT22;2377;51.734;8.950;2022-10-30T06:41:33;11.50;99.90
4727;DHT22;2377;51.734;8.950;2022-10-30T06:44:01;11.50;99.90
4727;DHT22;2377;51.734;8.950;2022-10-30T06:46:28;11.50;99.90
4727;DHT22;2377;51.734;8.950;2022-10-30T06:48:59;11.50;99.90
4727;DHT22;2377;51.734;8.950;2022-10-30T06:51:26;11.50;99.90
4727;DHT22;2377;51.734;8.950;2022-10-30T06:53:53;11.50;99.90
4727;DHT22;2377;51.734;8.950;2022-10-30T06:56:20;11.50;99.90
4727;DHT22;2377;51.734;8.950;2022-10-30T06:58:49;11.50;99.90
4727;DHT22;2377;51.734;8.950;2022-10-30T07:01:16;11.50;99.90
4727;DHT22;2377;51.734;8.950;2022-10-30T07:03:43;11.60;99.90
4727;DHT22;2377;51.734;8.950;2022-10-30T07:06:10;11.60;99.90
4727;DHT22;2377;51.734;8.950;2022-10-30T07:08:37;11.80;99.90
4727;DHT22;2377;51.734;8.950;2022-10-30T07:11:04;11.80;99.90
4727;DHT22;2377;51.734;8.950;2022-10-30T07:13:31;11.80;99.90
4727;DHT22;2377;51.734;8.950;2022-10-30T07:16:00;11.80;99.90
4727;DHT22;2377;51.734;8.950;2022-10-30T07:18:27;11.80;99.90
4727;DHT22;2377;51.734;8.950;2022-10-30T07:20:55;12.00;99.90
4727;DHT22;2377;51.734;8.950;2022-10-30T07:23:22;11.90;99.90
4727;DHT22;2377;51.734;8.950;2022-10-30T07:25:49;12.00;99.90
4727;DHT22;2377;51.734;8.950;2022-10-30T07:28:16;12.10;99.90
4727;DHT22;2377;51.734;8.950;2022-10-30T07:30:43;12.10;99.90
4727;DHT22;2377;51.734;8.950;2022-10-30T07:33:12;12.20;99.90
4727;DHT22;2377;51.734;8.950;2022-10-30T07:35:39;12.30;99.90
4727;DHT22;2377;51.734;8.950;2022-10-30T07:38:08;12.40;99.90
4727;DHT22;2377;51.734;8.950;2022-10-30T07:40:37;12.50;99.90
4727;DHT22;2377;51.734;8.950;2022-10-30T07:43:04;12.50;99.90
4727;DHT22;2377;51.734;8.950;2022-10-30T07:45:32;12.60;99.90
4727;DHT22;2377;51.734;8.950;2022-10-30T07:47:59;12.70;99.90
4727;DHT22;2377;51.734;8.950;2022-10-30T07:50:27;12.80;99.90
4727;DHT22;2377;51.734;8.950;2022-10-30T07:52:55;12.80;99.90
4727;DHT22;2377;51.734;8.950;2022-10-30T07:55:22;13.00;99.90
4727;DHT22;2377;51.734;8.950;2022-10-30T07:57:49;13.00;99.90
4727;DHT22;2377;51.734;8.950;2022-10-30T08:00:17;13.20;99.90
4727;DHT22;2377;51.734;8.950;2022-10-30T08:02:48;13.30;99.90
4727;DHT22;2377;51.734;8.950;2022-10-30T08:05:16;13.50;99.90
4727;DHT22;2377;51.734;8.950;2022-10-30T08:07:45;13.60;99.90
4727;DHT22;2377;51.734;8.950;2022-10-30T08:10:13;13.80;99.90
4727;DHT22;2377;51.734;8.950;2022-10-30T08:12:41;13.90;99.90
4727;DHT22;2377;51.734;8.950;2022-10-30T08:15:10;14.10;99.90
4727;DHT22;2377;51.734;8.950;2022-10-30T08:17:41;14.40;99.90
4727;DHT22;2377;51.734;8.950;2022-10-30T08:20:10;14.60;99.90
4727;DHT22;2377;51.734;8.950;2022-10-30T08:22:47;14.80;99.90
4727;DHT22;2377;51.734;8.950;2022-10-30T08:25:18;15.10;99.90
4727;DHT22;2377;51.734;8.950;2022-10-30T08:27:51;15.40;99.90
4727;DHT22;2377;51.734;8.950;2022-10-30T08:30:21;15.70;99.90
4727;DHT22;2377;51.734;8.950;2022-10-30T08:32:49;16.00;99.90
4727;DHT22;2377;51.734;8.950;2022-10-30T08:35:16;16.10;99.90
4727;DHT22;2377;51.734;8.950;2022-10-30T08:37:43;16.40;99.90
4727;DHT22;2377;51.734;8.950;2022-10-30T08:40:12;16.60;99.90
4727;DHT22;2377;51.734;8.950;2022-10-30T08:42:39;16.70;99.90
4727;DHT22;2377;51.734;8.950;2022-10-30T08:45:07;16.80;99.90
4727;DHT22;2377;51.734;8.950;2022-10-30T08:47:35;16.80;99.90
4727;DHT22;2377;51.734;8.950;2022-10-30T08:50:08;17.00;99.90
4727;DHT22;2377;51.734;8.950;2022-10-30T08:52:43;17.30;99.90
4727;DHT22;2377;51.734;8.950;2022-10-30T08:55:18;17.60;99.90
4727;DHT22;2377;51.734;8.950;2022-10-30T08:58:10;17.90;99.90
4727;DHT22;2377;51.734;8.950;2022-10-30T09:00:47;18.20;99.90
4727;DHT22;2377;51.734;8.950;2022-10-30T09:03:15;18.60;99.90
4727;DHT22;2377;51.734;8.950;2022-10-30T09:05:44;19.00;99.90
4727;DHT22;2377;51.734;8.950;2022-10-30T09:08:14;19.30;99.90
4727;DHT22;2377;51.734;8.950;2022-10-30T09:10:43;19.50;99.90
4727;DHT22;2377;51.734;8.950;2022-10-30T09:13:10;19.90;99.90
4727;DHT22;2377;51.734;8.950;2022-10-30T09:15:37;20.10;99.90
4727;DHT22;2377;51.734;8.950;2022-10-30T09:18:05;20.40;99.90
4727;DHT22;2377;51.734;8.950;2022-10-30T09:20:32;20.50;99.90
4727;DHT22;2377;51.734;8.950;2022-10-30T09:22:59;20.60;99.90
4727;DHT22;2377;51.734;8.950;2022-10-30T09:25:26;20.90;99.90
4727;DHT22;2377;51.734;8.950;2022-10-30T09:27:55;21.10;99.90
4727;DHT22;2377;51.734;8.950;2022-10-30T09:30:22;21.30;99.90
4727;DHT22;2377;51.734;8.950;2022-10-30T09:32:53;21.60;83.00
4727;DHT22;2377;51.734;8.950;2022-10-30T09:35:21;21.80;72.20
4727;DHT22;2377;51.734;8.950;2022-10-30T09:37:48;21.90;74.30
4727;DHT22;2377;51.734;8.950;2022-10-30T09:40:21;22.20;69.30
4727;DHT22;2377;51.734;8.950;2022-10-30T09:43:00;22.60;29.90
4727;DHT22;2377;51.734;8.950;2022-10-30T09:46:04;23.00;19.00
4727;DHT22;2377;51.734;8.950;2022-10-30T09:48:55;23.10;1.00
4727;DHT22;2377;51.734;8.950;2022-10-30T09:51:50;23.20;1.00
4727;DHT22;2377;51.734;8.950;2022-10-30T09:54:38;23.20;9.30
4727;DHT22;2377;51.734;8.950;2022-10-30T09:57:19;23.40;8.30
4727;DHT22;2377;51.734;8.950;2022-10-30T10:00:02;23.50;1.00
4727;DHT22;2377;51.734;8.950;2022-10-30T10:02:36;23.60;1.00
4727;DHT22;2377;51.734;8.950;2022-10-30T10:05:22;23.80;1.00
4727;DHT22;2377;51.734;8.950;2022-10-30T10:07:56;23.90;1.00
4727;DHT22;2377;51.734;8.950;2022-10-30T10:10:37;24.00;1.00
4727;DHT22;2377;51.734;8.950;2022-10-30T10:13:26;24.10;1.00
4727;DHT22;2377;51.734;8.950;2022-10-30T10:16:06;24.10;1.00
4727;DHT22;2377;51.734;8.950;2022-10-30T10:18:44;24.10;1.00
4727;DHT22;2377;51.734;8.950;2022-10-30T10:21:20;24.10;1.00
4727;DHT22;2377;51.734;8.950;2022-10-30T10:23:51;24.10;1.00
4727;DHT22;2377;51.734;8.950;2022-10-30T10:26:31;23.80;1.00
4727;DHT22;2377;51.734;8.950;2022-10-30T10:29:31;23.50;1.00
4727;DHT22;2377;51.734;8.950;2022-10-30T10:35:32;23.30;1.00
4727;DHT22;2377;51.734;8.950;2022-10-30T10:38:16;23.20;1.00
4727;DHT22;2377;51.734;8.950;2022-10-30T10:40:57;23.20;1.00
4727;DHT22;2377;51.734;8.950;2022-10-30T10:43:40;23.30;1.00
4727;DHT22;2377;51.734;8.950;2022-10-30T10:46:33;23.40;1.00
4727;DHT22;2377;51.734;8.950;2022-10-30T10:49:24;23.50;1.00
4727;DHT22;2377;51.734;8.950;2022-10-30T10:52:09;23.50;20.60
4727;DHT22;2377;51.734;8.950;2022-10-30T10:54:42;23.50;33.50
4727;DHT22;2377;51.734;8.950;2022-10-30T10:57:17;23.50;45.30
4727;DHT22;2377;51.734;8.950;2022-10-30T10:59:54;23.40;47.30
4727;DHT22;2377;51.734;8.950;2022-10-30T11:02:35;23.30;45.90
4727;DHT22;2377;51.734;8.950;2022-10-30T11:05:17;23.30;53.90
4727;DHT22;2377;51.734;8.950;2022-10-30T11:07:52;23.30;40.70
4727;DHT22;2377;51.734;8.950;2022-10-30T11:10:23;23.20;39.10
4727;DHT22;2377;51.734;8.950;2022-10-30T11:12:52;23.30;36.80
4727;DHT22;2377;51.734;8.950;2022-10-30T11:18:17;23.10;8.80
4727;DHT22;2377;51.734;8.950;2022-10-30T11:20:54;22.90;18.40
4727;DHT22;2377;51.734;8.950;2022-10-30T11:23:37;22.80;8.30
4727;DHT22;2377;51.734;8.950;2022-10-30T11:26:25;22.70;19.20
4727;DHT22;2377;51.734;8.950;2022-10-30T11:29:04;22.60;19.00
4727;DHT22;2377;51.734;8.950;2022-10-30T11:31:38;22.60;21.60
4727;DHT22;2377;51.734;8.950;2022-10-30T11:34:24;22.60;30.10
4727;DHT22;2377;51.734;8.950;2022-10-30T11:37:02;22.50;29.40
4727;DHT22;2377;51.734;8.950;2022-10-30T11:39:32;22.50;24.40
4727;DHT22;2377;51.734;8.950;2022-10-30T11:42:04;22.40;29.20
4727;DHT22;2377;51.734;8.950;2022-10-30T11:44:45;22.40;31.60
4727;DHT22;2377;51.734;8.950;2022-10-30T11:47:17;22.50;10.10
4727;DHT22;2377;51.734;8.950;2022-10-30T11:49:51;22.30;23.90
4727;DHT22;2377;51.734;8.950;2022-10-30T11:52:23;22.30;22.20
4727;DHT22;2377;51.734;8.950;2022-10-30T11:54:54;22.30;30.50
4727;DHT22;2377;51.734;8.950;2022-10-30T11:57:34;22.30;43.40
4727;DHT22;2377;51.734;8.950;2022-10-30T12:00:12;22.20;35.10
4727;DHT22;2377;51.734;8.950;2022-10-30T12:02:43;22.10;52.80
4727;DHT22;2377;51.734;8.950;2022-10-30T12:05:39;22.20;53.70
4727;DHT22;2377;51.734;8.950;2022-10-30T12:08:23;22.20;56.50
4727;DHT22;2377;51.734;8.950;2022-10-30T12:11:01;22.30;53.80
4727;DHT22;2377;51.734;8.950;2022-10-30T12:13:35;22.30;64.30
4727;DHT22;2377;51.734;8.950;2022-10-30T12:16:13;22.30;64.40
4727;DHT22;2377;51.734;8.950;2022-10-30T12:18:55;22.20;72.60
4727;DHT22;2377;51.734;8.950;2022-10-30T12:21:31;22.20;71.60
4727;DHT22;2377;51.734;8.950;2022-10-30T12:24:18;22.30;53.30
4727;DHT22;2377;51.734;8.950;2022-10-30T12:26:54;22.10;68.20
4727;DHT22;2377;51.734;8.950;2022-10-30T12:29:33;22.10;66.90
4727;DHT22;2377;51.734;8.950;2022-10-30T12:32:15;22.00;77.10
4727;DHT22;2377;51.734;8.950;2022-10-30T12:34:58;22.00;67.90
4727;DHT22;2377;51.734;8.950;2022-10-30T12:37:36;22.00;67.10
4727;DHT22;2377;51.734;8.950;2022-10-30T12:40:15;22.00;64.00
4727;DHT22;2377;51.734;8.950;2022-10-30T12:43:01;22.00;45.60
4727;DHT22;2377;51.734;8.950;2022-10-30T12:46:02;21.90;62.60
4727;DHT22;2377;51.734;8.950;2022-10-30T12:49:14;21.90;64.00
4727;DHT22;2377;51.734;8.950;2022-10-30T12:52:11;21.90;64.10
4727;DHT22;2377;51.734;8.950;2022-10-30T12:54:50;21.90;69.30
4727;DHT22;2377;51.734;8.950;2022-10-30T12:57:30;21.80;59.70
4727;DHT22;2377;51.734;8.950;2022-10-30T13:00:24;21.80;59.90
4727;DHT22;2377;51.734;8.950;2022-10-30T13:03:03;21.80;60.60
4727;DHT22;2377;51.734;8.950;2022-10-30T13:06:12;21.80;45.80
4727;DHT22;2377;51.734;8.950;2022-10-30T13:09:04;21.60;55.90
4727;DHT22;2377;51.734;8.950;2022-10-30T13:11:56;21.70;39.30
4727;DHT22;2377;51.734;8.950;2022-10-30T13:14:39;21.70;38.20
4727;DHT22;2377;51.734;8.950;2022-10-30T13:17:39;21.70;38.80
4727;DHT22;2377;51.734;8.950;2022-10-30T13:20:22;21.80;22.40
4727;DHT22;2377;51.734;8.950;2022-10-30T13:23:04;21.80;35.30
4727;DHT22;2377;51.734;8.950;2022-10-30T13:26:14;21.80;26.60
4727;DHT22;2377;51.734;8.950;2022-10-30T13:28:58;21.90;41.40
4727;DHT22;2377;51.734;8.950;2022-10-30T13:31:50;21.90;34.40
4727;DHT22;2377;51.734;8.950;2022-10-30T13:34:39;21.90;30.20
4727;DHT22;2377;51.734;8.950;2022-10-30T13:37:23;22.00;48.60
4727;DHT22;2377;51.734;8.950;2022-10-30T13:40:16;22.00;27.00
4727;DHT22;2377;51.734;8.950;2022-10-30T13:43:15;22.00;12.00
4727;DHT22;2377;51.734;8.950;2022-10-30T13:46:18;22.00;12.20
4727;DHT22;2377;51.734;8.950;2022-10-30T13:49:26;21.80;13.00
4727;DHT22;2377;51.734;8.950;2022-10-30T13:52:15;21.70;5.10
4727;DHT22;2377;51.734;8.950;2022-10-30T13:54:55;21.60;24.50
4727;DHT22;2377;51.734;8.950;2022-10-30T13:57:36;21.50;37.80
4727;DHT22;2377;51.734;8.950;2022-10-30T14:00:20;21.50;46.80
4727;DHT22;2377;51.734;8.950;2022-10-30T14:03:11;21.50;46.20
4727;DHT22;2377;51.734;8.950;2022-10-30T14:06:00;21.50;48.00
4727;DHT22;2377;51.734;8.950;2022-10-30T14:08:56;21.50;48.90
4727;DHT22;2377;51.734;8.950;2022-10-30T14:15:40;21.50;45.20
4727;DHT22;2377;51.734;8.950;2022-10-30T14:18:44;21.40;43.90
4727;DHT22;2377;51.734;8.950;2022-10-30T14:21:34;21.40;56.40
4727;DHT22;2377;51.734;8.950;2022-10-30T14:24:15;21.30;74.80
4727;DHT22;2377;51.734;8.950;2022-10-30T14:27:05;21.30;86.10
4727;DHT22;2377;51.734;8.950;2022-10-30T14:29:52;21.30;90.40
4727;DHT22;2377;51.734;8.950;2022-10-30T14:32:50;21.30;72.30
4727;DHT22;2377;51.734;8.950;2022-10-30T14:35:36;21.30;78.30
4727;DHT22;2377;51.734;8.950;2022-10-30T14:38:25;21.20;82.00
4727;DHT22;2377;51.734;8.950;2022-10-30T14:41:51;21.10;92.30
4727;DHT22;2377;51.734;8.950;2022-10-30T14:44:56;21.10;74.60
4727;DHT22;2377;51.734;8.950;2022-10-30T14:47:47;21.10;90.50
4727;DHT22;2377;51.734;8.950;2022-10-30T14:50:37;21.00;73.60
4727;DHT22;2377;51.734;8.950;2022-10-30T14:53:43;20.80;69.70
4727;DHT22;2377;51.734;8.950;2022-10-30T14:56:44;20.80;81.30
4727;DHT22;2377;51.734;8.950;2022-10-30T14:59:35;20.70;97.50
4727;DHT22;2377;51.734;8.950;2022-10-30T15:02:25;20.60;95.60
4727;DHT22;2377;51.734;8.950;2022-10-30T15:05:33;20.60;90.20
4727;DHT22;2377;51.734;8.950;2022-10-30T15:08:31;20.60;79.10
4727;DHT22;2377;51.734;8.950;2022-10-30T15:11:29;20.60;82.50
4727;DHT22;2377;51.734;8.950;2022-10-30T15:14:09;20.50;84.40
4727;DHT22;2377;51.734;8.950;2022-10-30T15:16:49;20.50;90.90
4727;DHT22;2377;51.734;8.950;2022-10-30T15:19:29;20.40;98.10
4727;DHT22;2377;51.734;8.950;2022-10-30T15:22:00;20.40;99.90
4727;DHT22;2377;51.734;8.950;2022-10-30T15:24:28;20.30;99.90
4727;DHT22;2377;51.734;8.950;2022-10-30T15:27:09;20.10;99.90
4727;DHT22;2377;51.734;8.950;2022-10-30T15:29:47;20.10;99.90
4727;DHT22;2377;51.734;8.950;2022-10-30T15:32:21;20.00;99.90
4727;DHT22;2377;51.734;8.950;2022-10-30T15:34:58;19.90;99.90
4727;DHT22;2377;51.734;8.950;2022-10-30T15:37:36;19.80;99.90
4727;DHT22;2377;51.734;8.950;2022-10-30T15:40:17;19.60;99.90
4727;DHT22;2377;51.734;8.950;2022-10-30T15:42:58;19.50;99.90
4727;DHT22;2377;51.734;8.950;2022-10-30T15:45:33;19.50;99.90
4727;DHT22;2377;51.734;8.950;2022-10-30T15:48:06;19.50;99.90
4727;DHT22;2377;51.734;8.950;2022-10-30T15:50:53;19.30;99.90
4727;DHT22;2377;51.734;8.950;2022-10-30T15:53:34;19.20;99.90
4727;DHT22;2377;51.734;8.950;2022-10-30T15:56:06;19.10;99.90
4727;DHT22;2377;51.734;8.950;2022-10-30T15:58:50;19.00;99.90
4727;DHT22;2377;51.734;8.950;2022-10-30T16:01:24;18.90;99.90
4727;DHT22;2377;51.734;8.950;2022-10-30T16:03:53;18.80;99.90
4727;DHT22;2377;51.734;8.950;2022-10-30T16:06:24;18.80;99.90
4727;DHT22;2377;51.734;8.950;2022-10-30T16:08:53;18.60;99.90
4727;DHT22;2377;51.734;8.950;2022-10-30T16:11:22;18.60;99.90
4727;DHT22;2377;51.734;8.950;2022-10-30T16:13:53;18.50;99.90
4727;DHT22;2377;51.734;8.950;2022-10-30T16:16:25;18.50;99.90
4727;DHT22;2377;51.734;8.950;2022-10-30T16:19:06;18.30;99.90
4727;DHT22;2377;51.734;8.950;2022-10-30T16:21:33;18.30;99.90
4727;DHT22;2377;51.734;8.950;2022-10-30T16:24:02;18.30;99.90
4727;DHT22;2377;51.734;8.950;2022-10-30T16:26:31;18.10;99.90
4727;DHT22;2377;51.734;8.950;2022-10-30T16:29:18;18.00;99.90
4727;DHT22;2377;51.734;8.950;2022-10-30T16:31:51;18.00;99.90
4727;DHT22;2377;51.734;8.950;2022-10-30T16:34:23;18.00;99.90
4727;DHT22;2377;51.734;8.950;2022-10-30T16:36:56;17.80;99.90
4727;DHT22;2377;51.734;8.950;2022-10-30T16:39:25;17.60;99.90
4727;DHT22;2377;51.734;8.950;2022-10-30T16:41:55;17.50;99.90
4727;DHT22;2377;51.734;8.950;2022-10-30T16:44:28;17.50;99.90
4727;DHT22;2377;51.734;8.950;2022-10-30T16:47:04;17.50;99.90
4727;DHT22;2377;51.734;8.950;2022-10-30T16:49:36;17.30;99.90
4727;DHT22;2377;51.734;8.950;2022-10-30T16:52:05;17.30;99.90
4727;DHT22;2377;51.734;8.950;2022-10-30T16:54:42;17.20;99.90
4727;DHT22;2377;51.734;8.950;2022-10-30T16:57:17;17.10;99.90
4727;DHT22;2377;51.734;8.950;2022-10-30T16:59:52;17.10;99.90
4727;DHT22;2377;51.734;8.950;2022-10-30T17:02:26;17.00;99.90